createdAt,value
2022-08-14T00:00:52.610Z,21.62
2022-08-14T00:03:29.263Z,21.58
2022-08-14T00:06:00.417Z,21.54
2022-08-14T00:08:44.788Z,21.53
2022-08-14T00:10:59.418Z,21.52
2022-08-14T00:13:30.930Z,21.54
2022-08-14T00:16:00.543Z,21.57
2022-08-14T00:18:30.825Z,21.60
2022-08-14T00:21:00.319Z,21.63
2022-08-14T00:23:29.152Z,21.62
2022-08-14T00:26:06.244Z,21.61
2022-08-14T00:28:32.440Z,21.58
2022-08-14T00:30:59.349Z,21.53
2022-08-14T00:33:39.238Z,21.44
2022-08-14T00:36:39.378Z,21.38
2022-08-14T00:38:28.370Z,21.31
2022-08-14T00:40:58.020Z,21.25
2022-08-14T00:43:32.163Z,21.18
2022-08-14T00:45:55.543Z,21.14
2022-08-14T00:48:34.293Z,21.08
2022-08-14T00:50:54.536Z,21.07
2022-08-14T00:53:25.092Z,21.06
2022-08-14T00:55:56.002Z,21.03
2022-08-14T00:58:33.381Z,21.00
2022-08-14T01:01:07.605Z,20.97
2022-08-14T01:03:39.115Z,20.91
2022-08-14T01:06:09.667Z,20.83
2022-08-14T01:08:51.115Z,20.77
2022-08-14T01:11:09.797Z,20.73
2022-08-14T01:13:42.769Z,20.71
2022-08-14T01:16:14.888Z,20.69
2022-08-14T01:19:02.453Z,20.69
2022-08-14T01:21:38.761Z,20.70
2022-08-14T01:24:09.930Z,20.75
2022-08-14T01:26:39.204Z,20.78
2022-08-14T01:29:07.105Z,20.78
2022-08-14T01:31:51.898Z,20.82
2022-08-14T01:35:18.269Z,20.83
2022-08-14T01:36:53.697Z,20.76
2022-08-14T01:39:21.700Z,20.69
2022-08-14T01:41:58.124Z,20.63
2022-08-14T01:44:33.943Z,20.58
2022-08-14T01:47:08.806Z,20.51
2022-08-14T01:49:46.210Z,20.45
2022-08-14T01:52:13.377Z,20.40
2022-08-14T01:54:39.845Z,20.31
2022-08-14T01:57:09.398Z,20.27
2022-08-14T01:59:40.263Z,20.22
2022-08-14T02:02:11.970Z,20.17
2022-08-14T02:04:57.088Z,20.12
2022-08-14T02:07:15.723Z,20.09
2022-08-14T02:09:42.893Z,20.05
2022-08-14T02:12:10.652Z,20.00
2022-08-14T02:14:40.265Z,19.96
2022-08-14T02:17:11.752Z,19.96
2022-08-14T02:19:39.406Z,19.96
2022-08-14T02:22:07.235Z,19.96
2022-08-14T02:24:40.072Z,20.03
2022-08-14T02:28:23.645Z,20.08
2022-08-14T02:29:59.375Z,20.13
2022-08-14T02:32:06.256Z,20.16
2022-08-14T02:34:36.530Z,20.19
2022-08-14T02:37:10.850Z,20.20
2022-08-14T02:39:45.680Z,20.21
2022-08-14T02:42:17.488Z,20.20
2022-08-14T02:44:48.877Z,20.18
2022-08-14T02:47:19.146Z,20.15
2022-08-14T02:49:50.721Z,20.11
2022-08-14T02:52:26.827Z,20.08
2022-08-14T02:54:55.604Z,20.05
2022-08-14T02:57:39.970Z,20.00
2022-08-14T03:00:10.676Z,19.94
2022-08-14T03:02:55.934Z,19.87
2022-08-14T03:05:18.284Z,19.81
2022-08-14T03:07:53.650Z,19.74
2022-08-14T03:10:25.634Z,19.70
2022-08-14T03:12:57.356Z,19.66
2022-08-14T03:15:34.376Z,19.60
2022-08-14T03:18:31.679Z,19.54
2022-08-14T03:21:03.916Z,19.52
2022-08-14T03:23:38.204Z,19.51
2022-08-14T03:26:12.951Z,19.52
2022-08-14T03:28:47.487Z,19.53
2022-08-14T03:31:23.760Z,19.57
2022-08-14T03:33:56.272Z,19.61
2022-08-14T03:37:51.840Z,19.66
2022-08-14T03:39:14.330Z,19.74
2022-08-14T03:41:27.576Z,19.79
2022-08-14T03:44:01.484Z,19.88
2022-08-14T03:46:52.526Z,19.90
2022-08-14T03:49:05.471Z,19.89
2022-08-14T03:51:34.988Z,19.89
2022-08-14T03:54:07.821Z,19.88
2022-08-14T03:56:37.508Z,19.87
2022-08-14T03:59:08.755Z,19.86
2022-08-14T04:01:45.642Z,19.84
2022-08-14T04:04:10.168Z,19.84
2022-08-14T04:06:44.528Z,19.82
2022-08-14T04:09:08.296Z,19.79
2022-08-14T04:11:38.490Z,19.78
2022-08-14T04:14:06.842Z,19.76
2022-08-14T04:16:35.023Z,19.75
2022-08-14T04:19:04.149Z,19.72
2022-08-14T04:21:40.011Z,19.70
2022-08-14T04:24:02.756Z,19.73
2022-08-14T04:26:42.840Z,19.76
2022-08-14T04:29:14.753Z,19.81
2022-08-14T04:33:00.366Z,19.84
2022-08-14T04:34:03.615Z,19.89
2022-08-14T04:36:34.911Z,19.96
2022-08-14T04:39:22.589Z,20.06
2022-08-14T04:42:14.157Z,20.13
2022-08-14T04:44:38.439Z,20.22
2022-08-14T04:47:25.206Z,20.30
2022-08-14T04:49:57.464Z,20.34
2022-08-14T04:52:24.569Z,20.35
2022-08-14T04:54:52.114Z,20.37
2022-08-14T04:57:22.867Z,20.38
2022-08-14T04:59:52.476Z,20.40
2022-08-14T05:02:24.785Z,20.43
2022-08-14T05:04:57.396Z,20.47
2022-08-14T05:07:46.635Z,20.50
2022-08-14T05:09:53.380Z,20.49
2022-08-14T05:13:13.483Z,20.50
2022-08-14T05:14:54.983Z,20.50
2022-08-14T05:17:21.165Z,20.51
2022-08-14T05:21:55.228Z,20.52
2022-08-14T05:22:19.469Z,20.53
2022-08-14T05:24:51.608Z,20.58
2022-08-14T05:27:22.954Z,20.65
2022-08-14T05:29:52.736Z,20.74
2022-08-14T05:32:20.988Z,20.87
2022-08-14T05:34:48.572Z,20.99
2022-08-14T05:37:16.261Z,21.12
2022-08-14T05:39:43.967Z,21.25
2022-08-14T05:42:22.320Z,21.39
2022-08-14T05:44:41.377Z,21.51
2022-08-14T05:47:11.307Z,21.66
2022-08-14T05:49:39.691Z,21.73
2022-08-14T05:52:09.885Z,21.86
2022-08-14T05:54:36.865Z,21.96
2022-08-14T05:57:05.128Z,22.06
2022-08-14T05:59:39.231Z,22.12
2022-08-14T06:02:03.090Z,22.18
2022-08-14T06:04:32.786Z,22.21
2022-08-14T06:07:00.614Z,22.21
2022-08-14T06:09:29.826Z,22.25
2022-08-14T06:11:59.337Z,22.32
2022-08-14T06:14:27.241Z,22.37
2022-08-14T06:16:55.065Z,22.41
2022-08-14T06:19:23.330Z,22.48
2022-08-14T06:21:58.485Z,22.51
2022-08-14T06:24:21.376Z,22.55
2022-08-14T06:26:54.298Z,22.59
2022-08-14T06:29:18.780Z,22.66
2022-08-14T06:31:47.175Z,22.74
2022-08-14T06:35:09.921Z,22.85
2022-08-14T06:36:45.983Z,22.92
2022-08-14T06:39:17.241Z,22.98
2022-08-14T06:41:58.234Z,23.02
2022-08-14T06:44:14.266Z,23.06
2022-08-14T06:46:42.012Z,23.13
2022-08-14T06:49:11.658Z,23.20
2022-08-14T06:51:44.860Z,23.21
2022-08-14T06:54:13.807Z,23.30
2022-08-14T06:56:44.394Z,23.39
2022-08-14T06:59:19.660Z,23.49
2022-08-14T07:02:03.549Z,23.59
2022-08-14T07:04:50.730Z,23.69
2022-08-14T07:07:18.907Z,23.73
2022-08-14T07:09:51.018Z,23.83
2022-08-14T07:12:55.054Z,23.93
2022-08-14T07:14:45.942Z,24.02
2022-08-14T07:17:15.324Z,24.17
2022-08-14T07:19:43.857Z,24.33
2022-08-14T07:22:17.744Z,24.46
2022-08-14T07:24:41.145Z,24.62
2022-08-14T07:27:08.738Z,24.73
2022-08-14T07:29:37.587Z,24.81
2022-08-14T07:32:09.042Z,24.91
2022-08-14T07:34:41.243Z,25.02
2022-08-14T07:37:07.753Z,25.17
2022-08-14T07:39:37.303Z,25.31
2022-08-14T07:42:07.599Z,25.39
2022-08-14T07:44:36.037Z,25.48
2022-08-14T07:47:05.308Z,25.56
2022-08-14T07:49:33.765Z,25.64
2022-08-14T07:52:05.118Z,25.72
2022-08-14T07:54:32.981Z,25.78
2022-08-14T07:57:06.606Z,25.86
2022-08-14T07:59:42.523Z,25.79
2022-08-14T08:02:01.046Z,25.79
2022-08-14T08:04:34.058Z,25.90
2022-08-14T08:07:02.158Z,25.92
2022-08-14T08:09:34.351Z,25.97
2022-08-14T08:12:05.391Z,26.07
2022-08-14T08:14:56.291Z,26.22
2022-08-14T08:17:05.863Z,26.35
2022-08-14T08:19:36.915Z,26.53
2022-08-14T08:22:04.640Z,26.64
2022-08-14T08:24:35.297Z,26.71
2022-08-14T08:27:16.765Z,26.82
2022-08-14T08:29:50.918Z,26.96
2022-08-14T08:32:14.727Z,27.07
2022-08-14T08:34:45.431Z,27.22
2022-08-14T08:37:15.115Z,27.34
2022-08-14T08:40:03.447Z,27.48
2022-08-14T08:42:31.698Z,27.61
2022-08-14T08:44:55.570Z,27.71
2022-08-14T08:47:23.372Z,27.80
2022-08-14T08:49:59.519Z,27.89
2022-08-14T08:52:25.480Z,27.98
2022-08-14T08:54:55.364Z,28.05
2022-08-14T08:57:24.177Z,28.12
2022-08-14T08:59:55.268Z,28.24
2022-08-14T09:02:22.131Z,28.37
2022-08-14T09:04:53.561Z,28.47
2022-08-14T09:07:26.710Z,28.58
2022-08-14T09:09:59.461Z,28.67
2022-08-14T09:12:26.868Z,28.70
2022-08-14T09:14:56.490Z,28.79
2022-08-14T09:17:26.109Z,28.82
2022-08-14T09:19:54.046Z,28.84
2022-08-14T09:22:36.018Z,28.77
2022-08-14T09:24:53.573Z,28.74
2022-08-14T09:27:23.486Z,28.83
2022-08-14T09:29:54.179Z,28.89
2022-08-14T09:32:59.155Z,28.98
2022-08-14T09:35:34.048Z,29.06
2022-08-14T09:38:19.513Z,29.00
2022-08-14T09:41:03.481Z,28.91
2022-08-14T09:43:42.679Z,28.87
2022-08-14T09:46:10.488Z,28.96
2022-08-14T09:48:40.247Z,29.12
2022-08-14T09:51:15.042Z,29.32
2022-08-14T09:54:17.883Z,29.44
2022-08-14T09:56:30.113Z,29.63
2022-08-14T09:58:50.959Z,29.71
2022-08-14T10:01:21.019Z,29.60
2022-08-14T10:03:55.080Z,29.53
2022-08-14T10:06:28.235Z,29.61
2022-08-14T10:09:01.736Z,29.68
2022-08-14T10:11:38.406Z,29.68
2022-08-14T10:14:29.341Z,29.57
2022-08-14T10:16:54.193Z,29.48
2022-08-14T10:19:23.870Z,29.49
2022-08-14T10:23:13.646Z,29.58
2022-08-14T10:24:44.812Z,29.61
2022-08-14T10:27:26.513Z,29.72
2022-08-14T10:30:03.736Z,29.80
2022-08-14T10:32:41.906Z,29.84
2022-08-14T10:35:14.113Z,29.79
2022-08-14T10:37:46.111Z,29.76
2022-08-14T10:40:37.582Z,29.75
2022-08-14T10:42:59.759Z,29.77
2022-08-14T10:45:35.720Z,29.85
2022-08-14T10:48:24.333Z,29.83
2022-08-14T10:50:44.167Z,29.90
2022-08-14T10:53:13.688Z,29.91
2022-08-14T10:55:45.480Z,29.92
2022-08-14T10:58:14.022Z,30.07
2022-08-14T11:00:46.880Z,30.19
2022-08-14T11:03:19.931Z,30.22
2022-08-14T11:05:49.435Z,30.25
2022-08-14T11:08:32.051Z,30.36
2022-08-14T11:11:03.267Z,30.40
2022-08-14T11:13:32.009Z,30.55
2022-08-14T11:16:01.382Z,30.75
2022-08-14T11:18:35.891Z,30.80
2022-08-14T11:21:01.873Z,30.66
2022-08-14T11:23:38.440Z,30.65
2022-08-14T11:26:05.063Z,30.84
2022-08-14T11:28:46.962Z,30.99
2022-08-14T11:31:16.147Z,31.05
2022-08-14T11:33:47.426Z,31.06
2022-08-14T11:36:18.616Z,31.14
2022-08-14T11:38:46.019Z,31.28
2022-08-14T11:41:16.958Z,31.33
2022-08-14T11:43:56.269Z,31.44
2022-08-14T11:46:30.528Z,31.53
2022-08-14T11:49:02.327Z,31.64
2022-08-14T11:51:30.487Z,31.71
2022-08-14T11:54:05.668Z,31.68
2022-08-14T11:56:39.730Z,31.70
2022-08-14T11:59:11.107Z,31.69
2022-08-14T12:01:41.416Z,31.64
2022-08-14T12:04:32.051Z,31.65
2022-08-14T12:06:56.324Z,31.61
2022-08-14T12:09:36.769Z,31.61
2022-08-14T12:12:34.935Z,31.63
2022-08-14T12:14:56.230Z,31.63
2022-08-14T12:17:29.226Z,31.43
2022-08-14T12:20:06.113Z,31.22
2022-08-14T12:22:43.313Z,31.00
2022-08-14T12:25:20.873Z,30.78
2022-08-14T12:27:59.558Z,30.58
2022-08-14T12:30:42.532Z,30.44
2022-08-14T12:33:08.889Z,30.35
2022-08-14T12:35:44.270Z,30.27
2022-08-14T12:38:19.560Z,30.11
2022-08-14T12:40:49.117Z,30.09
2022-08-14T12:43:19.332Z,29.93
2022-08-14T12:45:57.164Z,29.84
2022-08-14T12:48:32.304Z,29.79
2022-08-14T12:50:57.291Z,29.73
2022-08-14T12:53:39.302Z,29.68
2022-08-14T12:56:21.898Z,29.64
2022-08-14T12:58:51.584Z,29.53
2022-08-14T13:01:16.915Z,29.47
2022-08-14T13:03:38.560Z,29.41
2022-08-14T13:06:09.699Z,29.41
2022-08-14T13:08:38.258Z,29.36
2022-08-14T13:11:14.009Z,29.31
2022-08-14T13:13:44.634Z,29.33
2022-08-14T13:16:21.041Z,29.33
2022-08-14T13:19:03.227Z,29.32
2022-08-14T13:21:31.321Z,29.38
2022-08-14T13:24:03.377Z,29.43
2022-08-14T13:26:33.615Z,29.50
2022-08-14T13:29:03.503Z,29.49
2022-08-14T13:31:34.332Z,29.47
2022-08-14T13:34:02.918Z,29.44
2022-08-14T13:36:51.634Z,29.30
2022-08-14T13:39:03.820Z,29.13
2022-08-14T13:41:36.489Z,28.91
2022-08-14T13:44:03.596Z,28.20
2022-08-14T13:46:31.334Z,27.37
2022-08-14T13:49:00.104Z,26.57
2022-08-14T13:51:31.582Z,25.98
2022-08-14T13:54:11.147Z,24.97
2022-08-14T13:56:37.250Z,24.17
2022-08-14T13:59:06.090Z,23.73
2022-08-14T14:01:43.544Z,23.47
2022-08-14T14:04:06.356Z,23.31
2022-08-14T14:06:36.023Z,22.72
2022-08-14T14:09:06.085Z,22.30
2022-08-14T14:11:36.380Z,21.86
2022-08-14T14:14:04.955Z,21.60
2022-08-14T14:16:33.037Z,21.58
2022-08-14T14:19:09.098Z,21.58
2022-08-14T14:21:32.728Z,21.59
2022-08-14T14:24:01.103Z,21.55
2022-08-14T14:26:30.386Z,21.46
2022-08-14T14:29:01.475Z,21.42
2022-08-14T14:31:31.140Z,21.43
2022-08-14T14:34:12.431Z,21.48
2022-08-14T14:36:32.471Z,21.53
2022-08-14T14:39:04.846Z,21.53
2022-08-14T14:41:44.118Z,21.54
2022-08-14T14:44:15.577Z,21.60
2022-08-14T14:46:46.006Z,21.66
2022-08-14T14:49:14.227Z,21.71
2022-08-14T14:51:51.336Z,21.78
2022-08-14T14:54:31.838Z,21.83
2022-08-14T14:56:54.104Z,21.87
2022-08-14T14:59:23.554Z,21.94
2022-08-14T15:01:57.427Z,21.95
2022-08-14T15:04:25.935Z,21.97
2022-08-14T15:06:54.541Z,21.95
2022-08-14T15:09:23.658Z,21.87
2022-08-14T15:11:51.687Z,21.83
2022-08-14T15:14:54.996Z,21.81
2022-08-14T15:16:50.638Z,21.81
2022-08-14T15:19:18.835Z,21.76
2022-08-14T15:21:46.421Z,21.66
2022-08-14T15:24:20.667Z,21.62
2022-08-14T15:26:46.394Z,21.60
2022-08-14T15:29:14.536Z,21.58
2022-08-14T15:31:43.156Z,21.58
2022-08-14T15:34:43.217Z,21.58
2022-08-14T15:36:45.216Z,21.56
2022-08-14T15:39:15.203Z,21.50
2022-08-14T15:41:43.116Z,21.43
2022-08-14T15:44:25.577Z,21.44
2022-08-14T15:46:45.503Z,21.46
2022-08-14T15:49:13.370Z,21.47
2022-08-14T15:51:44.056Z,21.51
2022-08-14T15:54:12.351Z,21.55
2022-08-14T15:56:43.338Z,21.57
2022-08-14T15:59:18.223Z,21.59
2022-08-14T16:01:54.159Z,21.60
2022-08-14T16:04:17.521Z,21.62
2022-08-14T16:06:43.098Z,21.66
2022-08-14T16:09:11.430Z,21.68
2022-08-14T16:11:47.527Z,21.72
2022-08-14T16:14:10.064Z,21.71
2022-08-14T16:16:51.394Z,21.73
2022-08-14T16:19:10.656Z,21.74
2022-08-14T16:22:01.930Z,21.73
2022-08-14T16:24:24.958Z,21.68
2022-08-14T16:26:43.208Z,21.68
2022-08-14T16:29:14.037Z,21.64
2022-08-14T16:31:44.398Z,21.60
2022-08-14T16:34:43.746Z,21.57
2022-08-14T16:36:50.818Z,21.55
2022-08-14T16:39:13.350Z,21.55
2022-08-14T16:41:45.694Z,21.55
2022-08-14T16:44:32.054Z,21.58
2022-08-14T16:46:46.835Z,21.60
2022-08-14T16:49:17.407Z,21.62
2022-08-14T16:51:46.412Z,21.69
2022-08-14T16:54:34.054Z,21.78
2022-08-14T16:56:46.515Z,21.81
2022-08-14T16:59:19.534Z,21.78
2022-08-14T17:02:05.002Z,21.73
2022-08-14T17:04:33.531Z,21.71
2022-08-14T17:07:08.165Z,21.69
2022-08-14T17:09:48.384Z,21.70
2022-08-14T17:12:33.352Z,21.66
2022-08-14T17:15:15.067Z,21.62
2022-08-14T17:17:57.666Z,21.58
2022-08-14T17:20:52.921Z,21.57
2022-08-14T17:22:57.252Z,21.54
2022-08-14T17:25:30.063Z,21.50
2022-08-14T17:28:52.527Z,21.47
2022-08-14T17:31:02.513Z,21.47
2022-08-14T17:33:40.613Z,21.52
2022-08-14T17:36:21.074Z,21.54
2022-08-14T17:39:07.436Z,21.58
2022-08-14T17:41:48.026Z,21.61
2022-08-14T17:44:33.695Z,21.64
2022-08-14T17:47:04.650Z,21.63
2022-08-14T17:49:37.042Z,21.63
2022-08-14T17:52:16.802Z,21.65
2022-08-14T17:54:48.383Z,21.70
2022-08-14T17:57:23.546Z,21.74
2022-08-14T17:59:56.536Z,21.74
2022-08-14T18:02:31.413Z,21.73
2022-08-14T18:05:03.039Z,21.69
2022-08-14T18:07:59.395Z,21.63
2022-08-14T18:10:31.906Z,21.60
2022-08-14T18:12:41.093Z,21.58
2022-08-14T18:15:16.776Z,21.53
2022-08-14T18:17:53.122Z,21.47
2022-08-14T18:21:23.956Z,21.42
2022-08-14T18:22:50.109Z,21.35
2022-08-14T18:25:19.273Z,21.30
2022-08-14T18:27:51.460Z,21.26
2022-08-14T18:30:31.923Z,21.17
2022-08-14T18:32:57.074Z,21.09
2022-08-14T18:35:59.252Z,21.02
2022-08-14T18:38:45.840Z,21.02
2022-08-14T18:41:01.957Z,21.02
2022-08-14T18:43:45.622Z,20.99
2022-08-14T18:46:59.612Z,21.03
2022-08-14T18:48:50.851Z,21.06
2022-08-14T18:51:19.180Z,21.05
2022-08-14T18:53:59.335Z,21.04
2022-08-14T18:57:09.016Z,21.01
2022-08-14T18:59:43.538Z,20.97
2022-08-14T19:02:32.086Z,20.91
2022-08-14T19:05:02.264Z,20.85
2022-08-14T19:07:35.455Z,20.78
2022-08-14T19:10:05.326Z,20.66
2022-08-14T19:12:56.786Z,20.59
2022-08-14T19:15:30.867Z,20.46
2022-08-14T19:18:14.813Z,20.39
2022-08-14T19:20:48.514Z,20.36
2022-08-14T19:23:23.503Z,20.37
2022-08-14T19:26:00.171Z,20.38
2022-08-14T19:28:45.033Z,20.34
2022-08-14T19:31:37.162Z,20.28
2022-08-14T19:34:06.850Z,20.25
2022-08-14T19:37:04.600Z,20.25
2022-08-14T19:39:16.746Z,20.22
2022-08-14T19:41:51.959Z,20.21
2022-08-14T19:44:19.614Z,20.21
2022-08-14T19:47:01.745Z,20.22
2022-08-14T19:50:24.625Z,20.24
2022-08-14T19:52:21.675Z,20.22
2022-08-14T19:54:50.499Z,20.20
2022-08-14T19:57:26.428Z,20.18
2022-08-14T20:00:27.999Z,20.09
2022-08-14T20:02:49.750Z,19.97
2022-08-14T20:05:20.147Z,19.91
2022-08-14T20:07:59.196Z,19.89
2022-08-14T20:11:08.262Z,19.92
2022-08-14T20:13:09.702Z,19.89
2022-08-14T20:15:47.466Z,19.85
2022-08-14T20:18:18.369Z,19.87
2022-08-14T20:20:42.053Z,19.92
2022-08-14T20:23:14.108Z,19.95
2022-08-14T20:25:56.007Z,19.99
2022-08-14T20:28:29.722Z,20.01
2022-08-14T20:31:13.584Z,20.03
2022-08-14T20:34:15.992Z,19.99
2022-08-14T20:36:40.022Z,19.94
2022-08-14T20:39:15.279Z,19.93
2022-08-14T20:41:49.009Z,19.92
2022-08-14T20:44:40.579Z,19.89
2022-08-14T20:47:16.006Z,19.88
2022-08-14T20:49:43.952Z,19.84
2022-08-14T20:52:19.264Z,19.78
2022-08-14T20:54:50.888Z,19.73
2022-08-14T20:57:15.653Z,19.70
2022-08-14T20:59:50.406Z,19.65
2022-08-14T21:02:46.835Z,19.61
2022-08-14T21:05:16.454Z,19.59
2022-08-14T21:07:39.567Z,19.57
2022-08-14T21:10:33.257Z,19.59
2022-08-14T21:13:25.753Z,19.59
2022-08-14T21:15:19.282Z,19.60
2022-08-14T21:17:50.173Z,19.62
2022-08-14T21:20:25.499Z,19.64
2022-08-14T21:22:48.377Z,19.67
2022-08-14T21:25:20.629Z,19.71
2022-08-14T21:27:56.871Z,19.73
2022-08-14T21:30:20.975Z,19.72
2022-08-14T21:32:57.962Z,19.73
2022-08-14T21:35:22.812Z,19.72
2022-08-14T21:37:53.146Z,19.68
2022-08-14T21:40:41.609Z,19.66
2022-08-14T21:42:56.264Z,19.67
2022-08-14T21:45:24.123Z,19.68
2022-08-14T21:47:53.468Z,19.64
2022-08-14T21:50:39.514Z,19.54
2022-08-14T21:53:01.186Z,19.52
2022-08-14T21:55:23.295Z,19.49
2022-08-14T21:57:56.238Z,19.51
2022-08-14T22:00:35.821Z,19.51
2022-08-14T22:02:55.360Z,19.47
2022-08-14T22:05:22.837Z,19.43
2022-08-14T22:07:54.255Z,19.45
2022-08-14T22:10:22.939Z,19.48
2022-08-14T22:13:00.790Z,19.49
2022-08-14T22:15:22.504Z,19.52
2022-08-14T22:17:54.120Z,19.55
2022-08-14T22:20:21.186Z,19.58
2022-08-14T22:22:48.733Z,19.60
2022-08-14T22:25:18.434Z,19.61
2022-08-14T22:27:55.834Z,19.61
2022-08-14T22:30:18.524Z,19.56
2022-08-14T22:32:57.737Z,19.51
2022-08-14T22:35:17.330Z,19.44
2022-08-14T22:37:45.310Z,19.38
2022-08-14T22:40:51.214Z,19.34
2022-08-14T22:43:00.219Z,19.29
2022-08-14T22:45:14.411Z,19.28
2022-08-14T22:47:43.432Z,19.22
2022-08-14T22:50:31.425Z,19.19
2022-08-14T22:52:41.461Z,19.20
2022-08-14T22:55:12.772Z,19.25
2022-08-14T22:57:43.543Z,19.28
2022-08-14T23:00:20.236Z,19.35
2022-08-14T23:02:57.302Z,19.35
2022-08-14T23:05:39.162Z,19.38
2022-08-14T23:08:59.254Z,19.41
2022-08-14T23:10:32.618Z,19.46
2022-08-14T23:12:54.360Z,19.51
2022-08-14T23:15:29.939Z,19.55
2022-08-14T23:17:56.010Z,19.57
2022-08-14T23:20:24.918Z,19.59
2022-08-14T23:22:55.510Z,19.62
2022-08-14T23:25:56.793Z,19.63
2022-08-14T23:28:03.711Z,19.64
2022-08-14T23:30:34.511Z,19.62
2022-08-14T23:32:56.531Z,19.58
2022-08-14T23:35:27.596Z,19.54
2022-08-14T23:37:58.759Z,19.50
2022-08-14T23:40:30.179Z,19.47
2022-08-14T23:43:05.735Z,19.44
2022-08-14T23:45:38.761Z,19.44
2022-08-14T23:48:12.605Z,19.43
2022-08-14T23:51:02.237Z,19.45
2022-08-14T23:53:47.243Z,19.46
2022-08-14T23:56:09.894Z,19.47
2022-08-14T23:58:42.644Z,19.49
